Time;durP1;ratioP1;P1;durP2;ratioP2;P2;SDS_P1;SDS_P2;PMS_P1;PMS_P2;Temp;Humidity;BMP_temperature;BMP_pressure;BME280_temperature;BME280_humidity;BME280_pressure;Samples;Min_cycle;Max_cycle;Signal;HPM_P1;HPM_P2
2022/04/26 03:36:59;;;;;;;4.70;3.80;;;8.70;99.90;;;;;;5031009;28;20444;-72
2022/04/26 03:39:25;;;;;;;6.85;4.45;;;8.70;99.90;;;;;;5031977;28;20381;-72
2022/04/26 03:41:51;;;;;;;9.68;4.13;;;8.70;99.90;;;;;;5031572;28;20462;-72
2022/04/26 03:44:17;;;;;;;5.90;4.38;;;8.70;99.90;;;;;;5031122;28;20036;-72
2022/04/26 03:46:42;;;;;;;8.82;5.82;;;8.70;99.90;;;;;;5031764;28;20030;-71
2022/04/26 03:49:07;;;;;;;7.03;5.15;;;8.80;99.90;;;;;;5031462;28;20547;-72
2022/04/26 03:51:33;;;;;;;7.35;4.30;;;8.80;99.90;;;;;;5030982;28;20086;-72
2022/04/26 03:54:02;;;;;;;5.82;4.47;;;8.70;99.90;;;;;;5031508;28;20117;-71
2022/04/26 03:56:27;;;;;;;7.53;4.20;;;8.80;99.90;;;;;;5031557;28;20054;-71
2022/04/26 03:58:53;;;;;;;5.65;5.00;;;8.80;99.90;;;;;;5030949;28;20033;-72
2022/04/26 04:01:18;;;;;;;5.38;4.15;;;8.70;99.90;;;;;;5031609;28;20021;-71
2022/04/26 04:03:44;;;;;;;8.95;5.70;;;8.70;99.90;;;;;;5032064;28;20025;-71
2022/04/26 04:06:09;;;;;;;8.63;5.35;;;8.70;99.90;;;;;;5030825;28;20095;-71
2022/04/26 04:08:35;;;;;;;9.95;4.93;;;8.60;99.90;;;;;;5032337;28;20470;-72
2022/04/26 04:11:00;;;;;;;9.82;5.28;;;8.70;99.90;;;;;;5031344;28;20026;-71
2022/04/26 04:13:26;;;;;;;13.15;5.03;;;8.70;99.90;;;;;;5034761;28;20040;-72
2022/04/26 04:15:52;;;;;;;11.82;5.43;;;8.70;99.90;;;;;;5034641;28;20038;-72
2022/04/26 04:21:01;;;;;;;12.10;5.15;;;8.70;99.90;;;;;;5034639;28;20072;-72
2022/04/26 04:23:27;;;;;;;6.63;5.00;;;8.80;99.90;;;;;;5034933;28;20377;-72
2022/04/26 04:25:52;;;;;;;12.38;5.78;;;8.70;99.90;;;;;;5033824;28;20021;-71
2022/04/26 04:28:18;;;;;;;10.65;5.15;;;8.70;99.90;;;;;;5034747;28;20155;-72
2022/04/26 04:30:43;;;;;;;10.25;5.10;;;8.70;99.90;;;;;;5034659;28;20025;-72
2022/04/26 04:33:09;;;;;;;11.20;5.43;;;8.70;99.90;;;;;;5033657;28;20048;-72
2022/04/26 04:35:35;;;;;;;8.90;5.38;;;8.70;99.90;;;;;;5034849;28;20028;-72
2022/04/26 04:38:03;;;;;;;9.68;5.28;;;8.70;99.90;;;;;;5034232;28;20026;-72
2022/04/26 04:40:28;;;;;;;8.35;5.13;;;8.70;99.90;;;;;;5034095;28;20030;-72
2022/04/26 04:42:54;;;;;;;10.88;6.07;;;8.80;99.90;;;;;;5034096;28;20120;-72
2022/04/26 04:45:20;;;;;;;11.73;5.55;;;8.70;99.90;;;;;;5034236;28;20385;-73
2022/04/26 04:47:45;;;;;;;7.45;6.15;;;8.70;99.90;;;;;;5033679;28;20025;-72
2022/04/26 04:50:11;;;;;;;8.98;5.60;;;8.70;99.90;;;;;;5034112;28;20121;-72
2022/04/26 04:52:36;;;;;;;14.30;7.20;;;8.70;99.90;;;;;;5034223;28;20038;-72
2022/04/26 04:55:02;;;;;;;14.98;5.57;;;8.70;99.90;;;;;;5033523;28;20045;-73
2022/04/26 04:57:28;;;;;;;11.10;4.97;;;8.60;99.90;;;;;;5037493;28;20041;-72
2022/04/26 04:59:53;;;;;;;9.00;5.25;;;8.70;99.90;;;;;;5033808;28;20041;-72
2022/04/26 05:02:19;;;;;;;11.70;4.93;;;8.70;99.90;;;;;;5033360;28;20386;-72
2022/04/26 05:04:47;;;;;;;8.18;5.35;;;8.70;99.90;;;;;;5034243;28;20045;-73
2022/04/26 05:07:12;;;;;;;9.73;5.68;;;8.70;99.90;;;;;;5033942;28;20103;-72
2022/04/26 05:09:38;;;;;;;13.30;4.93;;;8.70;99.90;;;;;;5033595;28;20478;-73
2022/04/26 05:12:04;;;;;;;10.52;5.68;;;8.70;99.90;;;;;;5033698;28;20029;-73
2022/04/26 05:14:30;;;;;;;15.63;5.57;;;8.70;99.90;;;;;;5033397;28;20029;-73
2022/04/26 05:16:55;;;;;;;18.40;6.22;;;8.70;99.90;;;;;;5033786;28;20037;-72
2022/04/26 05:19:21;;;;;;;13.88;5.15;;;8.70;99.90;;;;;;5033924;28;20087;-74
2022/04/26 05:21:46;;;;;;;11.60;6.13;;;8.70;99.90;;;;;;5032876;28;20029;-72
2022/04/26 05:26:56;;;;;;;11.52;5.15;;;8.70;99.90;;;;;;5033964;28;20048;-73
2022/04/26 05:29:21;;;;;;;10.05;5.57;;;8.70;99.90;;;;;;5033166;28;20465;-72
2022/04/26 05:31:47;;;;;;;10.13;5.47;;;8.70;99.90;;;;;;5033634;28;20103;-73
2022/04/26 05:34:12;;;;;;;9.38;6.05;;;8.80;99.90;;;;;;5033670;28;20025;-72
2022/04/26 05:36:38;;;;;;;16.02;5.10;;;8.80;99.90;;;;;;5032712;28;20025;-72
2022/04/26 05:39:04;;;;;;;10.68;5.28;;;8.80;99.90;;;;;;5033230;28;20424;-73
2022/04/26 05:41:29;;;;;;;9.75;5.90;;;8.80;99.90;;;;;;5033280;28;20024;-72
2022/04/26 05:43:55;;;;;;;17.00;5.57;;;8.90;99.90;;;;;;5032427;28;20497;-72
2022/04/26 05:46:20;;;;;;;7.13;5.30;;;8.80;99.90;;;;;;5033465;28;20013;-72
2022/04/26 05:48:46;;;;;;;9.98;5.68;;;8.40;99.90;;;;;;5033313;28;20025;-72
2022/04/26 05:51:12;;;;;;;11.25;6.30;;;8.80;99.90;;;;;;5032262;28;20096;-73
2022/04/26 05:53:37;;;;;;;18.92;7.50;;;8.80;99.90;;;;;;5033334;28;20037;-73
2022/04/26 05:56:05;;;;;;;10.32;5.88;;;8.80;99.90;;;;;;5032776;28;20245;-73
2022/04/26 05:58:31;;;;;;;10.23;5.75;;;8.80;99.90;;;;;;5032500;28;20049;-73
2022/04/26 06:00:57;;;;;;;13.50;6.15;;;8.70;99.90;;;;;;5032699;28;20043;-73
2022/04/26 06:03:22;;;;;;;12.00;6.97;;;8.70;99.90;;;;;;5032914;28;20026;-73
2022/04/26 06:05:48;;;;;;;10.40;6.47;;;8.70;99.90;;;;;;5032079;28;20021;-72
2022/04/26 06:08:13;;;;;;;14.65;6.97;;;8.70;99.90;;;;;;5032817;28;20021;-72
2022/04/26 06:10:39;;;;;;;12.23;6.15;;;8.80;99.90;;;;;;5032109;28;20052;-72
2022/04/26 06:13:05;;;;;;;9.77;5.53;;;8.70;99.90;;;;;;5032695;28;20401;-72
2022/04/26 06:15:31;;;;;;;15.43;5.82;;;8.70;99.90;;;;;;5032897;28;20032;-72
2022/04/26 06:17:56;;;;;;;12.00;6.28;;;8.70;99.90;;;;;;5031978;28;20462;-72
2022/04/26 06:20:24;;;;;;;17.10;6.50;;;8.70;99.90;;;;;;5032875;28;20432;-73
2022/04/26 06:22:53;;;;;;;16.65;6.50;;;8.70;99.90;;;;;;5032703;28;20466;-72
2022/04/26 06:25:19;;;;;;;10.35;6.38;;;8.80;99.90;;;;;;5032166;28;20021;-73
2022/04/26 06:27:44;;;;;;;27.02;7.80;;;8.80;99.90;;;;;;5032742;28;20040;-73
2022/04/26 06:30:10;;;;;;;9.82;6.22;;;8.90;99.90;;;;;;5032358;28;20046;-73
2022/04/26 06:32:36;;;;;;;14.60;6.63;;;9.00;99.90;;;;;;5031659;28;20033;-73
2022/04/26 06:35:02;;;;;;;11.30;5.75;;;9.00;99.90;;;;;;5031587;28;20037;-73
2022/04/26 06:37:27;;;;;;;13.25;7.05;;;9.00;99.90;;;;;;5032339;28;20025;-72
2022/04/26 06:39:53;;;;;;;6.07;5.30;;;9.00;99.90;;;;;;5031474;28;20053;-72
2022/04/26 06:42:20;;;;;;;9.30;4.97;;;9.00;99.90;;;;;;5032454;28;20087;-73
2022/04/26 06:44:45;;;;;;;8.48;4.78;;;9.20;99.90;;;;;;5032229;28;20039;-73
2022/04/26 06:47:11;;;;;;;6.93;5.25;;;9.20;99.90;;;;;;5031311;28;20033;-72
2022/04/26 06:49:39;;;;;;;8.05;4.75;;;9.10;99.90;;;;;;5032258;28;20034;-72
2022/04/26 06:52:05;;;;;;;9.60;4.93;;;9.20;99.90;;;;;;5031781;28;20041;-73
2022/04/26 06:54:31;;;;;;;8.98;4.50;;;9.20;99.90;;;;;;5031280;28;20046;-71
2022/04/26 06:56:56;;;;;;;10.05;4.30;;;9.30;99.90;;;;;;5031864;28;20057;-73
2022/04/26 06:59:22;;;;;;;10.65;4.60;;;9.30;99.90;;;;;;5032120;28;20022;-72
2022/04/26 07:01:54;;;;;;;11.32;5.57;;;9.30;99.90;;;;;;5031223;28;20033;-72
2022/04/26 07:04:20;;;;;;;8.75;4.13;;;9.40;99.90;;;;;;5032074;28;20030;-73
2022/04/26 07:06:46;;;;;;;11.52;4.47;;;9.40;99.90;;;;;;5031974;28;20508;-73
2022/04/26 07:09:15;;;;;;;10.73;4.22;;;9.40;99.90;;;;;;5031434;28;20021;-73
2022/04/26 07:11:45;;;;;;;9.70;3.67;;;9.40;99.90;;;;;;5031849;28;20489;-72
2022/04/26 07:14:11;;;;;;;4.80;3.70;;;9.30;99.90;;;;;;5030971;28;20521;-72
2022/04/26 07:16:37;;;;;;;8.57;4.03;;;9.30;99.90;;;;;;5032189;28;20032;-74
2022/04/26 07:19:03;;;;;;;9.30;4.20;;;9.30;99.90;;;;;;5031737;28;20029;-73
2022/04/26 07:21:28;;;;;;;8.20;4.05;;;9.30;99.90;;;;;;5031491;28;20036;-72
2022/04/26 07:23:53;;;;;;;14.15;4.20;;;9.40;99.90;;;;;;5031849;28;20048;-71
2022/04/26 07:26:19;;;;;;;8.98;3.53;;;9.30;99.90;;;;;;5031917;28;20470;-71
2022/04/26 07:28:45;;;;;;;9.50;3.50;;;9.30;99.90;;;;;;5031126;28;20042;-72
2022/04/26 07:31:10;;;;;;;12.93;3.97;;;9.30;99.90;;;;;;5031504;28;20030;-72
2022/04/26 07:36:22;;;;;;;5.32;3.30;;;9.20;99.90;;;;;;5031376;28;20083;-72
2022/04/26 07:38:49;;;;;;;17.92;3.75;;;9.30;99.90;;;;;;5031704;28;20042;-73
2022/04/26 07:41:15;;;;;;;13.65;3.70;;;9.40;99.90;;;;;;5031847;28;20492;-72
2022/04/26 07:43:41;;;;;;;11.90;4.10;;;9.50;99.90;;;;;;5030950;28;20517;-72
2022/04/26 07:46:07;;;;;;;7.88;4.32;;;9.80;99.90;;;;;;5032631;28;20049;-72
2022/04/26 07:48:37;;;;;;;9.93;4.13;;;9.90;99.90;;;;;;5035539;28;20037;-72
2022/04/26 07:51:04;;;;;;;7.28;3.53;;;10.10;99.90;;;;;;5034307;28;20022;-73
2022/04/26 07:53:29;;;;;;;9.10;3.85;;;10.20;99.90;;;;;;5035633;28;20033;-72
2022/04/26 07:55:55;;;;;;;5.38;3.47;;;10.30;99.90;;;;;;5034982;28;20048;-72
2022/04/26 07:58:20;;;;;;;10.02;3.88;;;10.40;99.90;;;;;;5034867;28;20492;-73
2022/04/26 08:00:46;;;;;;;10.35;4.80;;;10.50;99.90;;;;;;5035568;28;20039;-73
2022/04/26 08:03:13;;;;;;;9.20;3.70;;;10.40;99.90;;;;;;5034321;28;20443;-72
2022/04/26 08:05:38;;;;;;;8.15;3.50;;;10.50;99.90;;;;;;5035203;28;20108;-72
2022/04/26 08:08:04;;;;;;;8.55;3.42;;;10.60;99.90;;;;;;5035111;28;20113;-72
2022/04/26 08:10:30;;;;;;;12.45;4.28;;;10.70;99.90;;;;;;5034520;28;20105;-72
2022/04/26 08:12:56;;;;;;;11.52;3.78;;;10.90;99.90;;;;;;5034888;28;20551;-72
2022/04/26 08:15:21;;;;;;;8.55;3.58;;;11.10;99.90;;;;;;5035003;28;20025;-72
2022/04/26 08:17:48;;;;;;;6.22;4.00;;;10.90;99.90;;;;;;5034190;28;20083;-73
2022/04/26 08:20:14;;;;;;;6.15;3.85;;;10.80;99.90;;;;;;5035157;28;20060;-73
2022/04/26 08:22:40;;;;;;;10.88;4.20;;;10.60;99.90;;;;;;5035021;28;20057;-73
2022/04/26 08:27:50;;;;;;;11.50;3.78;;;10.40;99.90;;;;;;5034851;28;20509;-72
2022/04/26 08:30:16;;;;;;;17.77;4.55;;;10.40;99.90;;;;;;5035019;28;20033;-73
2022/04/26 08:32:45;;;;;;;14.07;4.57;;;10.40;99.90;;;;;;5033996;28;20473;-72
2022/04/26 08:35:13;;;;;;;14.90;5.18;;;10.30;99.90;;;;;;5034645;28;20048;-72
2022/04/26 08:37:39;;;;;;;11.77;3.97;;;10.40;99.90;;;;;;5034806;28;20033;-73
2022/04/26 08:40:07;;;;;;;6.95;4.60;;;10.40;99.90;;;;;;5033957;28;20389;-72
2022/04/26 08:42:46;;;;;;;9.77;5.25;;;10.40;99.90;;;;;;5034936;28;20030;-73
2022/04/26 08:45:17;;;;;;;14.20;5.00;;;10.40;99.90;;;;;;5034216;28;20493;-72
2022/04/26 08:53:21;;;;;;;7.95;3.72;;;10.70;99.90;;;;;;5033891;28;20052;-72
2022/04/26 08:55:49;;;;;;;7.10;4.68;;;10.90;99.90;;;;;;5034279;28;20400;-72
2022/04/26 08:58:15;;;;;;;10.23;3.58;;;11.00;99.90;;;;;;5033831;28;20033;-72
2022/04/26 09:01:08;;;;;;;11.90;3.67;;;11.00;99.90;;;;;;5033525;28;20085;-72
2022/04/26 09:03:59;;;;;;;6.28;3.05;;;11.10;99.90;;;;;;5034109;28;20025;-73
2022/04/26 09:06:36;;;;;;;;;;;11.00;99.90;;;;;;5033910;28;20025;-72
2022/04/26 09:09:17;;;;;;;5.25;2.30;;;11.00;99.90;;;;;;5033857;28;19970;-72
2022/04/26 09:11:43;;;;;;;4.82;3.40;;;11.10;99.90;;;;;;5033802;28;20065;-72
2022/04/26 09:14:33;;;;;;;9.15;3.45;;;11.20;99.90;;;;;;5033232;28;20103;-72
2022/04/26 09:17:06;;;;;;;7.07;2.90;;;11.30;99.90;;;;;;5033574;28;20066;-72
2022/04/26 09:19:52;;;;;;;5.57;2.45;;;11.40;99.90;;;;;;5033932;28;20106;-73
2022/04/26 09:22:19;;;;;;;12.70;3.03;;;11.30;99.90;;;;;;5033112;28;20056;-73
2022/04/26 09:24:54;;;;;;;6.75;3.13;;;11.50;99.90;;;;;;5033670;28;20033;-73
2022/04/26 09:27:20;;;;;;;11.55;2.90;;;11.70;99.90;;;;;;5033724;28;20351;-72
2022/04/26 09:29:47;;;;;;;7.63;3.03;;;11.80;99.90;;;;;;5033511;28;20039;-72
2022/04/26 09:32:12;;;;;;;5.63;2.45;;;12.00;99.90;;;;;;5038740;28;20489;-72
2022/04/26 09:34:38;;;;;;;5.85;2.92;;;12.10;99.90;;;;;;5032864;28;20025;-72
2022/04/26 09:37:04;;;;;;;4.47;3.20;;;12.00;99.90;;;;;;5033456;28;20036;-72
2022/04/26 09:39:30;;;;;;;5.65;3.00;;;12.10;99.90;;;;;;5033351;28;20396;-72
2022/04/26 09:41:56;;;;;;;20.23;4.53;;;12.20;99.90;;;;;;5032515;28;20025;-72
2022/04/26 09:44:32;;;;;;;6.03;2.47;;;12.40;99.90;;;;;;5033369;28;20492;-72
2022/04/26 09:46:57;;;;;;;8.10;3.70;;;12.50;99.90;;;;;;5033154;28;20040;-73
2022/04/26 09:49:25;;;;;;;4.45;3.20;;;12.90;99.90;;;;;;5032335;28;20030;-73
2022/04/26 09:51:54;;;;;;;4.40;2.90;;;12.80;99.90;;;;;;5032832;28;20582;-73
2022/04/26 09:54:21;;;;;;;11.88;3.60;;;12.70;99.90;;;;;;5033291;28;20065;-73
2022/04/26 09:56:47;;;;;;;5.15;3.25;;;12.80;99.90;;;;;;5032329;28;20119;-73
2022/04/26 09:59:38;;;;;;;4.57;2.55;;;12.80;99.90;;;;;;5033123;28;20032;-73
2022/04/26 10:02:07;;;;;;;6.45;3.15;;;12.80;99.90;;;;;;5033054;28;20112;-73
2022/04/26 10:04:34;;;;;;;5.30;2.75;;;12.50;99.90;;;;;;5032316;28;20034;-72
2022/04/26 10:07:05;;;;;;;6.50;3.50;;;12.40;99.90;;;;;;5031558;28;20043;-73
2022/04/26 10:09:30;;;;;;;5.50;2.85;;;12.10;99.90;;;;;;5032038;28;20401;-73
2022/04/26 10:11:58;;;;;;;8.20;3.00;;;11.90;99.90;;;;;;5031810;28;20028;-73
2022/04/26 10:14:24;;;;;;;4.60;2.75;;;11.90;99.90;;;;;;5032949;28;20029;-72
2022/04/26 10:16:50;;;;;;;5.05;2.80;;;12.00;99.90;;;;;;5031931;28;20026;-73
2022/04/26 10:19:16;;;;;;;5.05;2.80;;;12.00;99.70;;;;;;5032734;28;20121;-72
2022/04/26 10:21:41;;;;;;;4.30;3.05;;;12.00;99.90;;;;;;5032863;28;20022;-72
2022/04/26 10:24:10;;;;;;;6.18;3.28;;;12.20;99.90;;;;;;5031616;28;20508;-73
2022/04/26 10:26:36;;;;;;;6.32;3.65;;;12.20;99.90;;;;;;5032547;28;20029;-73
2022/04/26 10:29:12;;;;;;;8.45;3.67;;;12.30;99.90;;;;;;5032299;28;20022;-74
2022/04/26 10:31:42;;;;;;;4.40;2.90;;;12.30;99.90;;;;;;5032031;28;20041;-73
2022/04/26 10:34:31;;;;;;;4.20;2.63;;;12.50;99.90;;;;;;5032367;28;20803;-72
2022/04/26 10:37:06;;;;;;;5.88;3.60;;;12.50;99.50;;;;;;5032341;28;20025;-72
2022/04/26 10:39:41;;;;;;;5.00;3.33;;;12.50;98.90;;;;;;5031643;28;20022;-73
2022/04/26 10:42:16;;;;;;;4.30;3.50;;;12.60;98.80;;;;;;5032322;28;20059;-73
2022/04/26 10:44:43;;;;;;;9.63;3.17;;;12.70;97.80;;;;;;5032031;28;20417;-72
2022/04/26 10:47:09;;;;;;;6.15;2.72;;;12.80;98.60;;;;;;5031192;28;20056;-73
2022/04/26 10:49:40;;;;;;;5.57;3.03;;;12.80;97.40;;;;;;5032153;28;20501;-72
2022/04/26 10:52:14;;;;;;;3.63;3.05;;;12.80;97.40;;;;;;5031395;28;20049;-72
2022/04/26 10:54:46;;;;;;;4.72;2.67;;;12.80;98.20;;;;;;5032139;28;20029;-72
2022/04/26 10:57:16;;;;;;;5.53;2.35;;;12.80;97.00;;;;;;5031977;28;20033;-73
2022/04/26 10:59:42;;;;;;;2.70;2.25;;;12.80;95.50;;;;;;5031772;28;20041;-73
2022/04/26 11:02:16;;;;;;;3.92;2.85;;;14.10;96.20;;;;;;5035869;28;20037;-72
2022/04/26 11:04:42;;;;;;;3.83;2.90;;;13.10;96.10;;;;;;5032106;28;20028;-72
2022/04/26 11:07:17;;;;;;;5.18;3.28;;;13.30;96.00;;;;;;5031451;28;20037;-73
2022/04/26 11:09:44;;;;;;;3.72;3.03;;;13.40;96.30;;;;;;5032161;28;20041;-73
2022/04/26 11:12:09;;;;;;;5.07;3.38;;;13.60;96.40;;;;;;5031743;28;20083;-72
2022/04/26 11:14:40;;;;;;;7.22;3.47;;;13.50;96.30;;;;;;5031189;28;20112;-72
2022/04/26 11:17:06;;;;;;;9.77;4.03;;;13.50;96.60;;;;;;5032167;28;20036;-72
2022/04/26 11:19:37;;;;;;;6.38;3.67;;;13.70;97.30;;;;;;5032307;28;20021;-72
2022/04/26 11:22:06;;;;;;;;;;;13.60;96.80;;;;;;5035765;28;20122;-73
2022/04/26 11:30:07;;;;;;;5.93;3.63;;;13.00;98.50;;;;;;5036074;28;20108;-73
2022/04/26 11:32:43;;;;;;;5.63;3.88;;;12.80;99.10;;;;;;5035585;28;20073;-73
2022/04/26 11:35:14;;;;;;;4.75;3.75;;;12.70;98.20;;;;;;5034954;28;20028;-73
2022/04/26 11:37:48;;;;;;;4.57;2.40;;;12.70;97.60;;;;;;5035765;28;20132;-73
2022/04/26 11:40:24;;;;;;;4.97;2.70;;;12.80;94.90;;;;;;5036050;28;20018;-72
2022/04/26 11:42:50;;;;;;;6.20;2.97;;;12.90;95.50;;;;;;5034885;28;20034;-73
2022/04/26 11:45:16;;;;;;;3.47;3.17;;;13.00;96.70;;;;;;5035886;28;20032;-72
2022/04/26 11:47:49;;;;;;;4.35;3.40;;;13.00;96.70;;;;;;5035837;28;20052;-71
2022/04/26 11:50:20;;;;;;;7.32;4.60;;;13.00;96.60;;;;;;5034807;28;20026;-73
2022/04/26 11:52:47;;;;;;;6.18;3.67;;;13.30;96.90;;;;;;5035686;28;20382;-73
2022/04/26 11:55:21;;;;;;;4.53;3.47;;;13.60;95.10;;;;;;5034645;28;20045;-74
2022/04/26 11:57:48;;;;;;;4.32;3.50;;;13.70;95.00;;;;;;5035609;28;20099;-73
2022/04/26 12:00:18;;;;;;;5.32;3.45;;;13.90;95.00;;;;;;5035366;28;20021;-71
2022/04/26 12:02:45;;;;;;;;;;;14.10;94.30;;;;;;5035072;28;20079;-72
2022/04/26 12:05:11;;;;;;;4.43;3.47;;;14.20;95.50;;;;;;5035320;28;19905;-73
2022/04/26 12:07:37;;;;;;;4.32;3.55;;;14.30;95.30;;;;;;5035337;28;20363;-72
2022/04/26 12:10:03;;;;;;;5.95;3.25;;;14.20;95.30;;;;;;5034328;28;20028;-73
2022/04/26 12:12:29;;;;;;;6.25;3.13;;;14.00;94.70;;;;;;5035019;28;20038;-72
2022/04/26 12:14:56;;;;;;;6.88;3.25;;;13.90;95.00;;;;;;5034798;28;20041;-73
2022/04/26 12:17:29;;;;;;;8.23;3.80;;;13.80;94.80;;;;;;5034615;28;20037;-73
2022/04/26 12:19:55;;;;;;;5.78;3.60;;;13.90;94.90;;;;;;5034676;28;20507;-73
2022/04/26 12:22:25;;;;;;;5.82;3.55;;;14.00;95.40;;;;;;5035221;28;20026;-73
2022/04/26 12:24:56;;;;;;;3.70;3.08;;;14.00;95.50;;;;;;5034115;28;20046;-72
2022/04/26 12:27:26;;;;;;;6.70;3.63;;;14.10;95.90;;;;;;5034940;28;20045;-72
2022/04/26 12:29:53;;;;;;;8.82;4.55;;;14.00;94.80;;;;;;5035354;28;20025;-74
2022/04/26 12:32:20;;;;;;;11.77;3.78;;;13.90;95.30;;;;;;5033040;28;20075;-73
2022/04/26 12:35:09;;;;;;;4.60;3.17;;;14.00;95.90;;;;;;5034963;28;20036;-72
2022/04/26 12:37:34;;;;;;;4.38;3.45;;;14.20;95.40;;;;;;5034033;28;20102;-72
2022/04/26 12:40:11;;;;;;;5.15;3.30;;;14.20;94.60;;;;;;5034346;28;20025;-72
2022/04/26 12:42:39;;;;;;;3.75;3.30;;;14.10;93.90;;;;;;5034760;28;20106;-72
2022/04/26 12:45:24;;;;;;;4.63;3.35;;;13.90;93.90;;;;;;5033638;28;20100;-72
2022/04/26 12:50:53;;;;;;;4.15;3.85;;;13.90;96.00;;;;;;5034164;28;20044;-72
2022/04/26 12:53:26;;;;;;;4.57;3.33;;;14.20;95.30;;;;;;5033782;28;20033;-72
2022/04/26 12:55:53;;;;;;;4.32;2.85;;;14.50;93.20;;;;;;5033971;28;20049;-72
2022/04/26 12:58:34;;;;;;;3.33;3.03;;;14.70;91.50;;;;;;5034528;28;20109;-72
2022/04/26 13:01:00;;;;;;;10.13;3.70;;;14.90;91.20;;;;;;5033994;28;20075;-72
2022/04/26 13:03:25;;;;;;;3.10;2.90;;;15.00;91.00;;;;;;5034515;28;20026;-72
2022/04/26 13:06:03;;;;;;;3.70;2.88;;;15.30;91.90;;;;;;5033210;28;20021;-72
2022/04/26 13:08:29;;;;;;;4.15;3.72;;;15.50;91.40;;;;;;5034092;28;20428;-73
2022/04/26 13:10:54;;;;;;;2.83;2.63;;;15.60;91.40;;;;;;5033723;28;20024;-73
2022/04/26 13:13:20;;;;;;;7.80;3.38;;;15.60;89.10;;;;;;5033134;28;20037;-72
2022/04/26 13:15:46;;;;;;;4.32;2.70;;;15.30;89.90;;;;;;5034010;28;20046;-72
2022/04/26 13:18:15;;;;;;;6.38;3.03;;;14.80;90.10;;;;;;5033856;28;20037;-71
2022/04/26 13:20:43;;;;;;;3.88;3.42;;;14.40;90.80;;;;;;5033365;28;20478;-72
2022/04/26 13:23:11;;;;;;;12.52;3.80;;;14.10;91.60;;;;;;5033845;28;20057;-72
2022/04/26 13:25:37;;;;;;;8.05;3.65;;;14.00;93.40;;;;;;5033780;28;20500;-72
2022/04/26 13:28:04;;;;;;;5.05;3.67;;;13.90;93.80;;;;;;5032613;28;20068;-73
2022/04/26 13:30:29;;;;;;;3.63;2.85;;;14.00;94.10;;;;;;5033852;28;20022;-72
2022/04/26 13:32:55;;;;;;;4.10;3.30;;;14.00;94.50;;;;;;5033257;28;20144;-73
2022/04/26 13:35:21;;;;;;;4.07;2.85;;;13.80;93.70;;;;;;5032983;28;20021;-72
2022/04/26 13:37:47;;;;;;;5.25;3.90;;;13.50;94.60;;;;;;5033562;28;20398;-73
2022/04/26 13:40:13;;;;;;;4.90;3.83;;;13.50;94.20;;;;;;5033573;28;20029;-73
2022/04/26 13:42:39;;;;;;;8.05;3.90;;;13.50;95.40;;;;;;5032653;28;20481;-73
2022/04/26 13:45:06;;;;;;;4.20;3.58;;;13.50;95.20;;;;;;5031926;28;20029;-73
2022/04/26 13:47:33;;;;;;;7.82;3.95;;;13.80;95.50;;;;;;5033586;28;20389;-72
2022/04/26 13:49:59;;;;;;;7.25;3.38;;;14.10;94.10;;;;;;5032548;28;20030;-72
2022/04/26 13:52:25;;;;;;;8.73;3.95;;;14.20;95.00;;;;;;5033496;28;20044;-72
2022/04/26 13:54:51;;;;;;;4.70;4.28;;;14.20;95.00;;;;;;5032223;28;20100;-71
2022/04/26 13:57:17;;;;;;;8.90;4.03;;;14.20;94.70;;;;;;5034930;28;20033;-71
2022/04/26 13:59:43;;;;;;;7.40;3.47;;;14.10;94.50;;;;;;5033847;28;20022;-72
2022/04/26 14:02:11;;;;;;;3.85;3.40;;;14.00;95.40;;;;;;5032273;28;20030;-72
2022/04/26 14:04:36;;;;;;;7.28;3.60;;;13.80;95.20;;;;;;5032972;28;20466;-71
2022/04/26 14:07:11;;;;;;;4.82;4.03;;;13.80;95.40;;;;;;5032818;28;20032;-72
2022/04/26 14:09:37;;;;;;;6.82;3.75;;;13.90;95.40;;;;;;5032172;28;20547;-71
2022/04/26 14:12:03;;;;;;;4.28;3.60;;;14.00;95.00;;;;;;5032831;28;20042;-72
2022/04/26 14:22:43;;;;;;;3.55;3.20;;;14.50;94.10;;;;;;5032775;28;20032;-71
2022/04/26 14:25:10;;;;;;;5.90;3.90;;;14.20;94.30;;;;;;5031825;28;20037;-71
2022/04/26 14:27:37;;;;;;;4.97;3.50;;;14.30;95.10;;;;;;5032834;28;20044;-71
2022/04/26 14:30:04;;;;;;;4.63;3.78;;;14.60;94.30;;;;;;5031735;28;20026;-71
2022/04/26 14:32:29;;;;;;;7.18;4.10;;;14.40;93.80;;;;;;5032494;28;20506;-71
2022/04/26 14:34:55;;;;;;;5.53;3.60;;;14.20;94.10;;;;;;5032293;28;20033;-72
2022/04/26 14:37:22;;;;;;;5.45;4.07;;;14.10;94.70;;;;;;5032262;28;20032;-72
2022/04/26 14:39:48;;;;;;;6.00;4.18;;;14.00;95.00;;;;;;5032327;28;20067;-72
2022/04/26 14:42:14;;;;;;;6.13;4.50;;;14.10;94.70;;;;;;5032738;28;20029;-71
2022/04/26 14:44:40;;;;;;;4.68;3.88;;;14.10;94.50;;;;;;5031920;28;20554;-71
2022/04/26 14:47:06;;;;;;;8.05;4.50;;;14.20;94.30;;;;;;5032045;28;20164;-71
2022/04/26 14:49:33;;;;;;;4.60;4.20;;;14.10;94.60;;;;;;5032715;28;20401;-71
2022/04/26 14:51:59;;;;;;;7.45;3.67;;;14.00;95.00;;;;;;5031398;28;20142;-72
2022/04/26 14:54:24;;;;;;;4.30;3.53;;;13.80;94.70;;;;;;5032103;28;20029;-71
2022/04/26 14:56:50;;;;;;;7.80;3.97;;;13.80;94.70;;;;;;5031889;28;20088;-72
2022/04/26 14:59:17;;;;;;;6.22;4.07;;;13.80;95.50;;;;;;5031526;28;20030;-71
2022/04/26 15:01:46;;;;;;;5.60;4.22;;;13.70;95.60;;;;;;5032119;28;20108;-72
2022/04/26 15:04:12;;;;;;;5.22;4.38;;;13.60;94.80;;;;;;5032203;28;20029;-72
2022/04/26 15:06:38;;;;;;;5.30;4.03;;;13.40;95.50;;;;;;5031534;28;20083;-72
2022/04/26 15:11:47;;;;;;;4.25;3.83;;;13.30;96.10;;;;;;5031995;28;20099;-72
2022/04/26 15:16:57;;;;;;;6.97;3.72;;;13.20;95.60;;;;;;5032213;28;20119;-72
2022/04/26 15:19:23;;;;;;;7.68;4.22;;;13.00;96.40;;;;;;5031361;28;20076;-73
2022/04/26 15:21:48;;;;;;;4.68;3.13;;;13.20;94.70;;;;;;5031898;28;20072;-71
2022/04/26 15:24:15;;;;;;;4.35;3.58;;;13.30;95.30;;;;;;5032262;28;20112;-71
2022/04/26 15:26:40;;;;;;;3.40;3.10;;;13.30;95.40;;;;;;5033915;28;20024;-71
2022/04/26 15:29:06;;;;;;;4.07;3.42;;;13.60;96.30;;;;;;5031784;28;20026;-71
2022/04/26 15:31:33;;;;;;;6.68;3.78;;;13.90;95.90;;;;;;5031771;28;20048;-71
2022/04/26 15:33:58;;;;;;;4.03;3.40;;;14.20;95.40;;;;;;5030761;28;20494;-71
2022/04/26 15:36:24;;;;;;;4.43;3.15;;;14.40;94.60;;;;;;5031873;28;20029;-72
2022/04/26 15:38:56;;;;;;;4.97;3.60;;;14.50;95.00;;;;;;5031676;28;20120;-71
2022/04/26 15:41:23;;;;;;;3.72;3.05;;;14.30;94.80;;;;;;5031075;28;20032;-71
2022/04/26 15:43:50;;;;;;;8.05;3.50;;;14.20;93.70;;;;;;5031461;28;20045;-71
2022/04/26 15:46:16;;;;;;;5.05;3.42;;;14.30;94.30;;;;;;5031953;28;20136;-71
2022/04/26 15:48:47;;;;;;;3.60;3.25;;;14.10;93.80;;;;;;5030994;28;20525;-71
2022/04/26 15:51:15;;;;;;;3.97;2.88;;;14.10;94.50;;;;;;5031895;28;20034;-71
2022/04/26 15:53:41;;;;;;;6.90;4.05;;;14.30;94.00;;;;;;5031593;28;20065;-71
2022/04/26 15:56:07;;;;;;;3.30;3.00;;;14.50;94.20;;;;;;5030699;28;20053;-71
2022/04/26 15:58:33;;;;;;;4.68;2.88;;;14.40;93.60;;;;;;5031784;28;20029;-71
2022/04/26 16:00:59;;;;;;;3.65;3.25;;;14.50;94.10;;;;;;5031429;28;20041;-70
2022/04/26 16:03:24;;;;;;;2.97;2.67;;;14.40;94.60;;;;;;5031050;28;20025;-71
2022/04/26 16:05:50;;;;;;;4.15;3.05;;;14.60;93.10;;;;;;5031352;28;20142;-71
2022/04/26 16:08:16;;;;;;;4.78;2.47;;;14.60;93.50;;;;;;5034454;28;20390;-71
2022/04/26 16:21:39;;;;;;;4.65;3.10;;;14.10;94.10;;;;;;5035112;28;20076;-71
2022/04/26 16:24:05;;;;;;;4.22;2.47;;;14.30;93.80;;;;;;5034107;28;20061;-72
2022/04/26 16:26:34;;;;;;;3.25;2.88;;;14.50;93.60;;;;;;5034897;28;20104;-71
2022/04/26 16:29:01;;;;;;;5.47;2.83;;;14.50;93.40;;;;;;5034604;28;20385;-71
2022/04/26 16:31:30;;;;;;;4.75;3.00;;;14.60;93.10;;;;;;5034112;28;20076;-71
2022/04/26 16:34:01;;;;;;;3.33;2.60;;;14.90;93.20;;;;;;5034786;28;20103;-71
2022/04/26 16:36:28;;;;;;;5.60;2.70;;;15.00;92.70;;;;;;5035264;28;20025;-72
2022/04/26 16:38:54;;;;;;;2.28;2.13;;;15.10;92.40;;;;;;5034215;28;20037;-71
2022/04/26 16:41:21;;;;;;;4.57;1.98;;;15.10;92.20;;;;;;5034867;28;20088;-72
2022/04/26 16:43:47;;;;;;;5.18;2.33;;;14.90;92.10;;;;;;5033837;28;20105;-71
2022/04/26 16:46:15;;;;;;;3.63;2.35;;;14.70;93.10;;;;;;5034944;28;20025;-71
2022/04/26 16:48:42;;;;;;;6.65;3.15;;;14.60;92.80;;;;;;5034693;28;20384;-72
2022/04/26 16:51:08;;;;;;;3.15;2.38;;;14.50;94.10;;;;;;5033797;28;20048;-71
2022/04/26 16:53:33;;;;;;;3.10;2.50;;;14.60;93.90;;;;;;5035285;28;20037;-72
2022/04/26 16:55:59;;;;;;;4.70;3.13;;;14.50;93.10;;;;;;5037304;28;20131;-72
2022/04/26 16:58:25;;;;;;;6.85;2.88;;;14.40;93.70;;;;;;5033693;28;20169;-71
2022/04/26 17:00:50;;;;;;;6.18;2.78;;;14.40;94.20;;;;;;5033964;28;20024;-71
2022/04/26 17:03:16;;;;;;;3.65;2.70;;;14.30;94.20;;;;;;5034389;28;20049;-71
2022/04/26 17:05:45;;;;;;;3.35;2.85;;;14.30;94.50;;;;;;5033472;28;20489;-71
2022/04/26 17:08:12;;;;;;;4.40;2.35;;;14.20;93.50;;;;;;5033858;28;20026;-71
2022/04/26 17:10:38;;;;;;;4.05;2.50;;;14.10;94.30;;;;;;5034076;28;20053;-72
2022/04/26 17:13:03;;;;;;;3.78;2.25;;;14.00;94.10;;;;;;5032905;28;20457;-71
2022/04/26 17:15:31;;;;;;;6.97;2.50;;;13.90;94.00;;;;;;5034152;28;20096;-71